RELEVES METEO NEUVILLE
Donnes mto: Actuelle mardi, 24/04/2018 08:25
Date Horaire Temp. E. Hum. E. P.atmo. Pluie Vent Direction Direction P. de rose Temp au vent Rafales
24/04/2018 08:25 9,2 C 86 % 1017,5 hPa 0,0 mm 0,9 km/h (0 Bft) SO 217 7,0 C 9,2 C 6,4 km/h (2 Bft)
24/04/2018 08:20 9,1 C 86 % 1017,5 hPa 0,0 mm 0,9 km/h (0 Bft) SO 220 6,9 C 9,1 C 8,0 km/h (2 Bft)
24/04/2018 08:15 9,1 C 86 % 1017,5 hPa 0,0 mm 1,3 km/h (1 Bft) SO 225 6,9 C 9,1 C 9,7 km/h (2 Bft)
24/04/2018 08:10 8,9 C 86 % 1017,4 hPa 0,0 mm 1,2 km/h (1 Bft) SO 230 6,7 C 8,9 C 8,0 km/h (2 Bft)
24/04/2018 08:05 8,8 C 87 % 1017,4 hPa 0,0 mm 1,3 km/h (1 Bft) S-SO 198 6,8 C 8,8 C 8,0 km/h (2 Bft)
24/04/2018 08:00 8,7 C 87 % 1017,4 hPa 0,0 mm 0,4 km/h (0 Bft) SO 218 6,7 C 8,7 C 3,2 km/h (1 Bft)
24/04/2018 07:55 8,7 C 88 % 1017,5 hPa 0,0 mm 0,5 km/h (0 Bft) SO 218 6,8 C 8,7 C 8,0 km/h (2 Bft)
24/04/2018 07:50 8,6 C 88 % 1017,5 hPa 0,0 mm 0,5 km/h (0 Bft) O 269 6,7 C 8,6 C 9,7 km/h (2 Bft)
24/04/2018 07:45 8,4 C 88 % 1017,5 hPa 0,0 mm 0,4 km/h (0 Bft) O-SO 251 6,5 C 8,4 C 6,4 km/h (2 Bft)
24/04/2018 07:40 8,3 C 88 % 1017,4 hPa 0,0 mm 1,0 km/h (0 Bft) S 173 6,4 C 8,3 C 8,0 km/h (2 Bft)
24/04/2018 07:35 8,3 C 88 % 1017,4 hPa 0,0 mm 0,2 km/h (0 Bft) O-SO 238 6,4 C 8,3 C 3,2 km/h (1 Bft)
24/04/2018 07:30 8,2 C 88 % 1017,4 hPa 0,0 mm 0,2 km/h (0 Bft) S-SO 211 6,3 C 8,2 C 3,2 km/h (1 Bft)
24/04/2018 07:25 8,2 C 88 % 1017,5 hPa 0,0 mm 0,1 km/h (0 Bft) SO 227 6,3 C 8,2 C 1,6 km/h (1 Bft)
24/04/2018 07:20 8,1 C 88 % 1017,5 hPa 0,0 mm 0,6 km/h (0 Bft) SO 219 6,2 C 8,1 C 6,4 km/h (2 Bft)
24/04/2018 07:15 8,0 C 89 % 1017,4 hPa 0,0 mm 0,5 km/h (0 Bft) SO 234 6,3 C 8,0 C 4,8 km/h (1 Bft)
24/04/2018 07:10 7,9 C 89 % 1017,4 hPa 0,0 mm 0,4 km/h (0 Bft) SO 223 6,2 C 7,9 C 8,0 km/h (2 Bft)
24/04/2018 07:05 7,9 C 88 % 1017,4 hPa 0,0 mm 0,3 km/h (0 Bft) S 173 6,0 C 7,9 C 4,8 km/h (1 Bft)
24/04/2018 07:00 7,8 C 88 % 1017,4 hPa 0,0 mm 0,2 km/h (0 Bft) S 172 5,9 C 7,8 C 3,2 km/h (1 Bft)
24/04/2018 06:55 7,7 C 88 % 1017,3 hPa 0,0 mm 0,5 km/h (0 Bft) S 170 5,8 C 7,7 C 8,0 km/h (2 Bft)
24/04/2018 06:50 7,8 C 88 % 1017,4 hPa 0,0 mm 0,3 km/h (0 Bft) SO 227 5,9 C 7,8 C 3,2 km/h (1 Bft)
24/04/2018 06:45 7,8 C 88 % 1017,4 hPa 0,0 mm 0,4 km/h (0 Bft) O-SO 246 5,9 C 7,8 C 6,4 km/h (2 Bft)
_ Min-Heure 06:50 00:00 05:55 - 00:15 - - 02:10 06:55 00:20
Minimum _ 7,7 C 81 % 1017,2 hPa - 0,0 km/h (0 Bft) - - 5,5 C 7,7 C 0,0 km/h (0 Bft)
_ Max-Heure 08:25 07:10 00:05 00:00 04:45 - - 08:25 08:25 02:20
Maximum _ 9,2 C 89 % 1018,7 hPa 0,0 mm 2,1 km/h
S-SO (1 Bft)
- - 7,0 C 9,2 C 11,3 km/h
S-SO (2 Bft)
Moyenne _ 8,2 C 86 % 1017,8 hPa #0,0 mm 0,5 km/h (0 Bft) SO - 6,0 C 8,2 C 5,8 km/h (1 Bft)
NEUVILLE ST REMY